Terminal Aerodrome Forecast
Issued by NWS

Home | Current Version | Previous Version | Text Only | Print | Product List | Glossary On
Versions: 1 2 3 4 5 6 7 8 9 10 11 12
000
FTUS45 KMSO 051720
TAFSMN
TAF
KSMN 051720Z 0518/0618 VRB03KT P6SM SCT120
     FM052100 35010KT P6SM VCTS BKN070CB BKN120
     FM052300 34012G22KT P6SM VCSH BKN080
     FM060400 01009KT P6SM SCT150
      AMD LTD TO CLD VIS AND WIND=

USA.gov is the U.S. government's official web portal to all federal, state and local government web resources and services.